Liberty Hill, Texas
Current Conditions -  °F | °C
As of 11:15 AM on Thursday 27 Nov 2014 (Local Time) from KRYW Reporting Station
Clear Clear  
Wind Chill: 56°   Ceiling: Unl
Heat Index: 56°   Visibility: 10mi
Dew Point: 24°   Wind: 8mph
Humidity: 29%   Direction: 80°E
Pressure: 30.52"   Gusts: NA
Location:  30.66°N, 97.92°W
Report Text: KRYW 271715Z AUTO 08007KT 10SM CLR 14/M04 A3052 RMK AO2 T01361042
Loading
Personal Weather Stations






























Interactive Weather Map New forecast layout! Learn more

10-Day Weather Forecast

Advertisements
Track Severe Weather on mobile